sensor_id;sensor_type;location;lat;lon;timestamp;noise_LAeq;noise_LA_min;noise_LA_max;noise_LA01;noise_LA95
66463;Laerm;56827;52.178;4.500;2023-09-30T00:00:09;32.09;30.19;33.61;;
66463;Laerm;56827;52.178;4.500;2023-09-30T00:00:20;32.80;30.65;35.01;;
66463;Laerm;56827;52.178;4.500;2023-09-30T00:00:30;32.52;30.84;35.10;;
66463;Laerm;56827;52.178;4.500;2023-09-30T00:00:45;32.51;30.51;36.61;;
66463;Laerm;56827;52.178;4.500;2023-09-30T00:00:55;36.26;32.07;41.07;;
66463;Laerm;56827;52.178;4.500;2023-09-30T00:01:09;37.35;34.28;41.49;;
66463;Laerm;56827;52.178;4.500;2023-09-30T00:01:19;35.05;32.76;37.37;;
66463;Laerm;56827;52.178;4.500;2023-09-30T00:01:29;34.60;32.04;36.71;;
66463;Laerm;56827;52.178;4.500;2023-09-30T00:01:40;37.70;33.45;41.49;;
66463;Laerm;56827;52.178;4.500;2023-09-30T00:01:50;34.82;32.70;38.25;;
66463;Laerm;56827;52.178;4.500;2023-09-30T00:02:02;35.05;32.67;37.59;;
66463;Laerm;56827;52.178;4.500;2023-09-30T00:02:13;34.97;32.56;38.25;;
66463;Laerm;56827;52.178;4.500;2023-09-30T00:02:23;36.67;33.18;39.94;;
66463;Laerm;56827;52.178;4.500;2023-09-30T00:02:33;33.74;30.66;36.57;;
66463;Laerm;56827;52.178;4.500;2023-09-30T00:02:43;33.27;31.40;35.78;;
66463;Laerm;56827;52.178;4.500;2023-09-30T00:02:54;32.97;31.19;35.29;;
66463;Laerm;56827;52.178;4.500;2023-09-30T00:03:04;32.94;31.20;36.76;;
66463;Laerm;56827;52.178;4.500;2023-09-30T00:03:14;33.59;31.46;35.36;;
66463;Laerm;56827;52.178;4.500;2023-09-30T00:03:25;34.99;32.85;37.61;;
66463;Laerm;56827;52.178;4.500;2023-09-30T00:03:35;35.76;31.91;39.51;;
66463;Laerm;56827;52.178;4.500;2023-09-30T00:03:45;35.55;31.45;40.09;;
66463;Laerm;56827;52.178;4.500;2023-09-30T00:03:55;37.61;32.94;42.16;;
66463;Laerm;56827;52.178;4.500;2023-09-30T00:04:06;36.95;33.43;42.64;;
66463;Laerm;56827;52.178;4.500;2023-09-30T00:04:17;33.77;30.94;37.40;;
66463;Laerm;56827;52.178;4.500;2023-09-30T00:04:27;34.17;31.69;40.89;;
66463;Laerm;56827;52.178;4.500;2023-09-30T00:04:38;33.14;31.69;36.02;;
66463;Laerm;56827;52.178;4.500;2023-09-30T00:04:49;33.43;31.78;35.08;;
66463;Laerm;56827;52.178;4.500;2023-09-30T00:04:59;34.90;32.20;38.62;;
66463;Laerm;56827;52.178;4.500;2023-09-30T00:05:09;34.91;32.02;39.09;;
66463;Laerm;56827;52.178;4.500;2023-09-30T00:05:20;35.11;31.23;43.48;;
66463;Laerm;56827;52.178;4.500;2023-09-30T00:05:30;33.67;31.94;35.78;;
66463;Laerm;56827;52.178;4.500;2023-09-30T00:05:40;34.23;32.45;41.68;;
66463;Laerm;56827;52.178;4.500;2023-09-30T00:05:50;33.43;32.15;34.98;;
66463;Laerm;56827;52.178;4.500;2023-09-30T00:06:00;34.16;32.68;36.03;;
66463;Laerm;56827;52.178;4.500;2023-09-30T00:06:11;33.96;31.58;38.17;;
66463;Laerm;56827;52.178;4.500;2023-09-30T00:06:21;32.91;30.94;34.69;;
66463;Laerm;56827;52.178;4.500;2023-09-30T00:06:31;32.49;30.89;38.76;;
66463;Laerm;56827;52.178;4.500;2023-09-30T00:06:41;32.59;30.92;34.52;;
66463;Laerm;56827;52.178;4.500;2023-09-30T00:06:52;33.61;31.62;35.32;;
66463;Laerm;56827;52.178;4.500;2023-09-30T00:07:02;34.73;31.30;38.83;;
66463;Laerm;56827;52.178;4.500;2023-09-30T00:07:12;37.60;34.93;41.17;;
66463;Laerm;56827;52.178;4.500;2023-09-30T00:07:22;39.00;36.19;41.20;;
66463;Laerm;56827;52.178;4.500;2023-09-30T00:07:33;36.09;32.03;40.44;;
66463;Laerm;56827;52.178;4.500;2023-09-30T00:07:43;33.34;31.87;35.30;;
66463;Laerm;56827;52.178;4.500;2023-09-30T00:07:53;34.14;32.24;37.89;;
66463;Laerm;56827;52.178;4.500;2023-09-30T00:08:04;33.18;31.43;35.19;;
66463;Laerm;56827;52.178;4.500;2023-09-30T00:08:14;36.64;32.37;41.30;;
66463;Laerm;56827;52.178;4.500;2023-09-30T00:08:25;35.78;33.60;37.92;;
66463;Laerm;56827;52.178;4.500;2023-09-30T00:08:35;38.44;35.99;41.06;;
66463;Laerm;56827;52.178;4.500;2023-09-30T00:08:45;37.61;35.61;40.73;;
66463;Laerm;56827;52.178;4.500;2023-09-30T00:08:56;38.96;35.31;42.44;;
66463;Laerm;56827;52.178;4.500;2023-09-30T00:09:07;35.80;33.05;38.00;;
66463;Laerm;56827;52.178;4.500;2023-09-30T00:09:17;34.07;31.87;35.38;;
66463;Laerm;56827;52.178;4.500;2023-09-30T00:09:27;32.64;30.58;35.86;;
66463;Laerm;56827;52.178;4.500;2023-09-30T00:09:38;32.56;30.80;35.71;;
66463;Laerm;56827;52.178;4.500;2023-09-30T00:09:48;32.08;30.86;37.23;;
66463;Laerm;56827;52.178;4.500;2023-09-30T00:09:59;31.94;30.49;33.90;;
66463;Laerm;56827;52.178;4.500;2023-09-30T00:10:09;32.08;30.70;33.84;;
66463;Laerm;56827;52.178;4.500;2023-09-30T00:10:20;32.46;30.31;35.00;;
66463;Laerm;56827;52.178;4.500;2023-09-30T00:10:30;32.80;30.77;35.32;;
66463;Laerm;56827;52.178;4.500;2023-09-30T00:10:41;33.67;30.36;39.98;;
66463;Laerm;56827;52.178;4.500;2023-09-30T00:10:51;36.70;33.44;40.08;;
66463;Laerm;56827;52.178;4.500;2023-09-30T00:11:03;35.24;31.10;45.33;;
66463;Laerm;56827;52.178;4.500;2023-09-30T00:11:15;33.66;30.65;40.39;;
66463;Laerm;56827;52.178;4.500;2023-09-30T00:11:26;32.14;30.19;38.59;;
66463;Laerm;56827;52.178;4.500;2023-09-30T00:11:36;33.17;30.56;40.40;;
66463;Laerm;56827;52.178;4.500;2023-09-30T00:11:46;33.12;31.06;37.45;;
66463;Laerm;56827;52.178;4.500;2023-09-30T00:11:57;35.19;31.12;47.74;;
66463;Laerm;56827;52.178;4.500;2023-09-30T00:12:07;32.86;31.32;34.48;;
66463;Laerm;56827;52.178;4.500;2023-09-30T00:12:17;32.44;30.53;33.85;;
66463;Laerm;56827;52.178;4.500;2023-09-30T00:12:27;32.23;30.28;34.57;;
66463;Laerm;56827;52.178;4.500;2023-09-30T00:12:38;31.92;30.31;33.72;;
66463;Laerm;56827;52.178;4.500;2023-09-30T00:12:48;32.73;30.84;37.13;;
66463;Laerm;56827;52.178;4.500;2023-09-30T00:12:58;38.17;31.35;44.26;;
66463;Laerm;56827;52.178;4.500;2023-09-30T00:13:11;35.71;30.63;42.48;;
66463;Laerm;56827;52.178;4.500;2023-09-30T00:13:22;32.77;30.88;34.84;;
66463;Laerm;56827;52.178;4.500;2023-09-30T00:13:32;36.34;33.14;40.83;;
66463;Laerm;56827;52.178;4.500;2023-09-30T00:13:43;36.36;33.58;40.85;;
66463;Laerm;56827;52.178;4.500;2023-09-30T00:13:53;35.55;31.22;46.64;;
66463;Laerm;56827;52.178;4.500;2023-09-30T00:14:03;32.77;31.33;35.53;;
66463;Laerm;56827;52.178;4.500;2023-09-30T00:14:14;32.68;30.85;36.91;;
66463;Laerm;56827;52.178;4.500;2023-09-30T00:14:24;32.25;30.85;33.84;;
66463;Laerm;56827;52.178;4.500;2023-09-30T00:14:35;32.37;30.73;37.51;;
66463;Laerm;56827;52.178;4.500;2023-09-30T00:14:47;32.24;30.62;39.22;;
66463;Laerm;56827;52.178;4.500;2023-09-30T00:14:58;31.74;30.32;33.18;;
66463;Laerm;56827;52.178;4.500;2023-09-30T00:15:08;31.52;30.03;33.38;;
66463;Laerm;56827;52.178;4.500;2023-09-30T00:15:19;31.86;29.93;38.70;;
66463;Laerm;56827;52.178;4.500;2023-09-30T00:15:29;32.11;30.36;38.44;;
66463;Laerm;56827;52.178;4.500;2023-09-30T00:15:39;33.79;30.99;44.41;;
66463;Laerm;56827;52.178;4.500;2023-09-30T00:15:51;32.42;30.45;39.15;;
66463;Laerm;56827;52.178;4.500;2023-09-30T00:16:01;34.75;30.88;45.34;;
66463;Laerm;56827;52.178;4.500;2023-09-30T00:16:11;34.47;31.74;43.80;;
66463;Laerm;56827;52.178;4.500;2023-09-30T00:16:21;37.72;33.63;42.89;;
66463;Laerm;56827;52.178;4.500;2023-09-30T00:16:32;33.48;30.12;42.39;;
66463;Laerm;56827;52.178;4.500;2023-09-30T00:16:42;31.60;30.30;32.73;;
66463;Laerm;56827;52.178;4.500;2023-09-30T00:16:52;31.62;30.03;32.85;;
66463;Laerm;56827;52.178;4.500;2023-09-30T00:17:03;33.51;30.56;46.15;;
66463;Laerm;56827;52.178;4.500;2023-09-30T00:17:13;33.98;30.78;50.11;;
66463;Laerm;56827;52.178;4.500;2023-09-30T00:17:24;33.49;31.43;39.38;;
66463;Laerm;56827;52.178;4.500;2023-09-30T00:17:34;36.49;32.95;44.29;;
66463;Laerm;56827;52.178;4.500;2023-09-30T00:17:45;32.76;30.67;35.76;;
66463;Laerm;56827;52.178;4.500;2023-09-30T00:17:55;33.38;31.04;38.48;;
66463;Laerm;56827;52.178;4.500;2023-09-30T00:18:05;34.75;31.14;45.45;;
66463;Laerm;56827;52.178;4.500;2023-09-30T00:18:15;36.12;32.25;39.45;;
66463;Laerm;56827;52.178;4.500;2023-09-30T00:18:26;36.67;33.36;41.30;;
66463;Laerm;56827;52.178;4.500;2023-09-30T00:18:37;36.67;34.00;39.99;;
66463;Laerm;56827;52.178;4.500;2023-09-30T00:18:48;33.89;31.71;39.39;;
66463;Laerm;56827;52.178;4.500;2023-09-30T00:18:58;34.77;31.18;44.28;;
66463;Laerm;56827;52.178;4.500;2023-09-30T00:19:08;33.58;31.28;37.27;;
66463;Laerm;56827;52.178;4.500;2023-09-30T00:19:19;32.52;30.98;39.98;;
66463;Laerm;56827;52.178;4.500;2023-09-30T00:19:32;32.82;30.43;45.57;;
66463;Laerm;56827;52.178;4.500;2023-09-30T00:19:43;31.83;30.30;36.81;;
66463;Laerm;56827;52.178;4.500;2023-09-30T00:19:54;32.89;30.34;39.60;;
66463;Laerm;56827;52.178;4.500;2023-09-30T00:20:05;34.28;31.08;47.87;;
66463;Laerm;56827;52.178;4.500;2023-09-30T00:20:15;33.59;31.39;36.46;;
66463;Laerm;56827;52.178;4.500;2023-09-30T00:20:26;33.83;31.55;45.83;;
66463;Laerm;56827;52.178;4.500;2023-09-30T00:20:37;32.98;31.22;37.01;;
66463;Laerm;56827;52.178;4.500;2023-09-30T00:20:47;34.10;31.44;38.05;;
66463;Laerm;56827;52.178;4.500;2023-09-30T00:20:58;37.71;34.18;41.14;;
66463;Laerm;56827;52.178;4.500;2023-09-30T00:21:08;37.31;34.21;41.26;;
66463;Laerm;56827;52.178;4.500;2023-09-30T00:21:18;44.87;34.80;59.44;;
66463;Laerm;56827;52.178;4.500;2023-09-30T00:21:29;40.12;31.52;53.46;;
66463;Laerm;56827;52.178;4.500;2023-09-30T00:21:39;34.64;31.52;40.55;;
66463;Laerm;56827;52.178;4.500;2023-09-30T00:21:49;33.18;30.86;36.63;;
66463;Laerm;56827;52.178;4.500;2023-09-30T00:22:00;32.91;30.88;35.19;;
66463;Laerm;56827;52.178;4.500;2023-09-30T00:22:10;32.39;30.98;33.81;;
66463;Laerm;56827;52.178;4.500;2023-09-30T00:22:20;32.05;30.99;33.76;;
66463;Laerm;56827;52.178;4.500;2023-09-30T00:22:31;32.62;30.69;38.61;;
66463;Laerm;56827;52.178;4.500;2023-09-30T00:22:41;32.06;30.69;33.17;;
66463;Laerm;56827;52.178;4.500;2023-09-30T00:22:51;33.34;31.15;36.42;;
66463;Laerm;56827;52.178;4.500;2023-09-30T00:23:01;33.81;31.68;37.52;;
66463;Laerm;56827;52.178;4.500;2023-09-30T00:23:12;33.97;31.06;38.94;;
66463;Laerm;56827;52.178;4.500;2023-09-30T00:23:22;32.35;30.51;39.47;;
66463;Laerm;56827;52.178;4.500;2023-09-30T00:23:32;32.47;30.85;34.00;;
66463;Laerm;56827;52.178;4.500;2023-09-30T00:23:43;33.21;31.27;35.57;;
66463;Laerm;56827;52.178;4.500;2023-09-30T00:23:53;35.18;31.66;41.47;;
66463;Laerm;56827;52.178;4.500;2023-09-30T00:24:04;40.44;31.48;55.98;;
66463;Laerm;56827;52.178;4.500;2023-09-30T00:24:14;38.56;33.01;48.71;;
66463;Laerm;56827;52.178;4.500;2023-09-30T00:24:24;37.46;31.97;50.77;;
66463;Laerm;56827;52.178;4.500;2023-09-30T00:24:35;33.00;30.64;40.76;;
66463;Laerm;56827;52.178;4.500;2023-09-30T00:24:45;33.02;31.12;37.68;;
66463;Laerm;56827;52.178;4.500;2023-09-30T00:24:55;32.08;30.61;34.02;;
66463;Laerm;56827;52.178;4.500;2023-09-30T00:25:06;32.11;30.94;33.60;;
66463;Laerm;56827;52.178;4.500;2023-09-30T00:25:16;32.26;30.99;34.19;;
66463;Laerm;56827;52.178;4.500;2023-09-30T00:25:26;32.73;30.63;40.89;;
66463;Laerm;56827;52.178;4.500;2023-09-30T00:25:38;38.33;32.22;48.08;;
66463;Laerm;56827;52.178;4.500;2023-09-30T00:25:49;38.04;33.52;47.97;;
66463;Laerm;56827;52.178;4.500;2023-09-30T00:26:00;35.95;32.41;43.56;;
66463;Laerm;56827;52.178;4.500;2023-09-30T00:26:10;33.43;30.57;41.81;;
66463;Laerm;56827;52.178;4.500;2023-09-30T00:26:21;32.50;30.75;34.41;;
66463;Laerm;56827;52.178;4.500;2023-09-30T00:26:32;32.94;29.92;39.13;;
66463;Laerm;56827;52.178;4.500;2023-09-30T00:26:42;32.36;30.41;34.86;;
66463;Laerm;56827;52.178;4.500;2023-09-30T00:26:52;32.23;30.48;36.39;;
66463;Laerm;56827;52.178;4.500;2023-09-30T00:27:02;32.28;30.13;37.43;;
66463;Laerm;56827;52.178;4.500;2023-09-30T00:27:13;32.93;30.66;37.89;;
66463;Laerm;56827;52.178;4.500;2023-09-30T00:27:23;32.89;31.04;36.67;;
66463;Laerm;56827;52.178;4.500;2023-09-30T00:27:33;32.81;30.96;34.26;;
66463;Laerm;56827;52.178;4.500;2023-09-30T00:27:43;32.76;30.92;36.18;;
66463;Laerm;56827;52.178;4.500;2023-09-30T00:27:53;33.71;31.77;36.48;;
66463;Laerm;56827;52.178;4.500;2023-09-30T00:28:04;34.71;32.59;37.69;;
66463;Laerm;56827;52.178;4.500;2023-09-30T00:28:14;33.62;31.55;37.01;;
66463;Laerm;56827;52.178;4.500;2023-09-30T00:28:24;37.08;32.85;42.37;;
66463;Laerm;56827;52.178;4.500;2023-09-30T00:28:35;34.73;32.41;37.26;;
66463;Laerm;56827;52.178;4.500;2023-09-30T00:28:45;38.42;34.66;41.74;;
66463;Laerm;56827;52.178;4.500;2023-09-30T00:28:55;34.12;31.25;38.57;;
66463;Laerm;56827;52.178;4.500;2023-09-30T00:29:05;33.15;30.62;35.38;;
66463;Laerm;56827;52.178;4.500;2023-09-30T00:29:16;32.83;31.03;35.97;;
66463;Laerm;56827;52.178;4.500;2023-09-30T00:29:26;33.17;31.34;35.55;;
66463;Laerm;56827;52.178;4.500;2023-09-30T00:29:36;37.07;31.72;49.30;;
66463;Laerm;56827;52.178;4.500;2023-09-30T00:29:46;40.86;34.12;52.98;;
66463;Laerm;56827;52.178;4.500;2023-09-30T00:29:57;35.79;31.51;46.52;;
66463;Laerm;56827;52.178;4.500;2023-09-30T00:30:07;34.11;31.37;37.27;;
66463;Laerm;56827;52.178;4.500;2023-09-30T00:30:17;34.23;32.15;36.50;;
66463;Laerm;56827;52.178;4.500;2023-09-30T00:30:28;34.90;32.23;41.84;;
66463;Laerm;56827;52.178;4.500;2023-09-30T00:30:38;33.89;31.98;42.06;;
66463;Laerm;56827;52.178;4.500;2023-09-30T00:30:48;34.80;32.12;39.53;;
66463;Laerm;56827;52.178;4.500;2023-09-30T00:31:00;36.88;33.55;43.67;;
66463;Laerm;56827;52.178;4.500;2023-09-30T00:31:10;35.00;32.04;38.51;;
66463;Laerm;56827;52.178;4.500;2023-09-30T00:31:20;36.12;32.42;47.33;;
66463;Laerm;56827;52.178;4.500;2023-09-30T00:31:31;33.49;30.93;35.59;;
66463;Laerm;56827;52.178;4.500;2023-09-30T00:31:41;33.83;30.84;40.05;;
66463;Laerm;56827;52.178;4.500;2023-09-30T00:31:51;36.82;33.22;41.88;;
66463;Laerm;56827;52.178;4.500;2023-09-30T00:32:02;37.27;31.73;41.38;;
66463;Laerm;56827;52.178;4.500;2023-09-30T00:32:12;32.90;31.02;40.73;;
66463;Laerm;56827;52.178;4.500;2023-09-30T00:32:22;34.82;32.06;38.35;;
66463;Laerm;56827;52.178;4.500;2023-09-30T00:32:33;38.40;34.53;44.77;;
66463;Laerm;56827;52.178;4.500;2023-09-30T00:32:43;35.20;32.10;42.61;;
66463;Laerm;56827;52.178;4.500;2023-09-30T00:32:53;32.86;31.30;35.15;;
66463;Laerm;56827;52.178;4.500;2023-09-30T00:33:04;34.35;32.00;36.81;;
66463;Laerm;56827;52.178;4.500;2023-09-30T00:33:14;38.87;34.41;43.61;;
66463;Laerm;56827;52.178;4.500;2023-09-30T00:33:24;39.68;33.21;44.31;;
66463;Laerm;56827;52.178;4.500;2023-09-30T00:33:35;35.07;32.09;39.70;;
66463;Laerm;56827;52.178;4.500;2023-09-30T00:33:45;34.41;31.59;38.22;;
66463;Laerm;56827;52.178;4.500;2023-09-30T00:33:56;32.63;31.27;34.06;;
66463;Laerm;56827;52.178;4.500;2023-09-30T00:34:06;32.57;31.23;34.12;;
66463;Laerm;56827;52.178;4.500;2023-09-30T00:34:16;32.54;30.77;37.72;;
66463;Laerm;56827;52.178;4.500;2023-09-30T00:34:26;32.68;31.03;35.72;;
66463;Laerm;56827;52.178;4.500;2023-09-30T00:34:37;32.75;31.00;35.31;;
66463;Laerm;56827;52.178;4.500;2023-09-30T00:34:47;33.51;31.63;35.93;;
66463;Laerm;56827;52.178;4.500;2023-09-30T00:34:57;34.01;31.93;38.43;;
66463;Laerm;56827;52.178;4.500;2023-09-30T00:35:08;36.13;32.31;48.74;;
66463;Laerm;56827;52.178;4.500;2023-09-30T00:35:21;33.62;31.53;39.01;;
66463;Laerm;56827;52.178;4.500;2023-09-30T00:35:32;32.92;30.77;36.00;;
66463;Laerm;56827;52.178;4.500;2023-09-30T00:35:42;33.25;30.99;36.25;;
66463;Laerm;56827;52.178;4.500;2023-09-30T00:35:52;32.81;31.19;34.13;;
66463;Laerm;56827;52.178;4.500;2023-09-30T00:36:09;31.68;30.17;34.45;;
66463;Laerm;56827;52.178;4.500;2023-09-30T00:36:19;31.88;29.83;43.26;;
66463;Laerm;56827;52.178;4.500;2023-09-30T00:36:30;33.67;30.34;37.50;;
66463;Laerm;56827;52.178;4.500;2023-09-30T00:36:41;31.66;30.18;33.31;;
66463;Laerm;56827;52.178;4.500;2023-09-30T00:36:51;32.66;31.07;36.72;;
66463;Laerm;56827;52.178;4.500;2023-09-30T00:37:01;34.17;31.35;47.27;;
66463;Laerm;56827;52.178;4.500;2023-09-30T00:37:12;32.42;30.93;36.95;;
66463;Laerm;56827;52.178;4.500;2023-09-30T00:37:23;32.31;30.16;36.30;;
66463;Laerm;56827;52.178;4.500;2023-09-30T00:37:33;31.37;29.97;33.11;;
66463;Laerm;56827;52.178;4.500;2023-09-30T00:37:43;31.40;29.95;34.15;;
66463;Laerm;56827;52.178;4.500;2023-09-30T00:37:54;32.07;30.36;38.45;;
66463;Laerm;56827;52.178;4.500;2023-09-30T00:38:04;31.23;29.75;33.81;;
66463;Laerm;56827;52.178;4.500;2023-09-30T00:38:14;31.08;29.70;38.39;;
66463;Laerm;56827;52.178;4.500;2023-09-30T00:38:24;31.21;29.85;32.79;;
66463;Laerm;56827;52.178;4.500;2023-09-30T00:38:35;31.08;29.91;33.75;;
66463;Laerm;56827;52.178;4.500;2023-09-30T00:38:45;31.08;29.76;32.36;;
66463;Laerm;56827;52.178;4.500;2023-09-30T00:38:56;31.71;30.01;33.67;;
66463;Laerm;56827;52.178;4.500;2023-09-30T00:39:06;31.17;29.81;33.00;;
66463;Laerm;56827;52.178;4.500;2023-09-30T00:39:17;31.47;29.97;34.40;;
66463;Laerm;56827;52.178;4.500;2023-09-30T00:39:27;33.70;30.74;35.61;;
66463;Laerm;56827;52.178;4.500;2023-09-30T00:39:40;32.92;30.94;35.07;;
66463;Laerm;56827;52.178;4.500;2023-09-30T00:39:50;32.05;30.30;39.07;;
66463;Laerm;56827;52.178;4.500;2023-09-30T00:40:01;31.40;30.06;33.86;;
66463;Laerm;56827;52.178;4.500;2023-09-30T00:40:11;33.19;30.54;37.25;;
66463;Laerm;56827;52.178;4.500;2023-09-30T00:40:22;35.57;31.71;40.29;;
66463;Laerm;56827;52.178;4.500;2023-09-30T00:40:32;32.47;30.32;37.80;;
66463;Laerm;56827;52.178;4.500;2023-09-30T00:40:48;31.98;30.43;36.53;;
66463;Laerm;56827;52.178;4.500;2023-09-30T00:40:59;33.13;30.55;46.39;;
66463;Laerm;56827;52.178;4.500;2023-09-30T00:41:09;32.38;30.24;34.73;;
66463;Laerm;56827;52.178;4.500;2023-09-30T00:41:19;34.95;32.46;39.42;;
66463;Laerm;56827;52.178;4.500;2023-09-30T00:41:29;36.83;33.94;39.50;;
66463;Laerm;56827;52.178;4.500;2023-09-30T00:41:40;36.59;34.22;38.75;;
66463;Laerm;56827;52.178;4.500;2023-09-30T00:41:50;37.43;34.13;42.76;;
66463;Laerm;56827;52.178;4.500;2023-09-30T00:42:00;38.21;35.60;44.84;;
66463;Laerm;56827;52.178;4.500;2023-09-30T00:42:10;38.28;34.81;40.30;;
66463;Laerm;56827;52.178;4.500;2023-09-30T00:42:21;35.00;31.70;44.49;;
66463;Laerm;56827;52.178;4.500;2023-09-30T00:42:31;31.86;30.27;33.70;;
66463;Laerm;56827;52.178;4.500;2023-09-30T00:42:41;32.52;30.85;34.95;;
66463;Laerm;56827;52.178;4.500;2023-09-30T00:42:51;38.06;31.80;46.04;;
66463;Laerm;56827;52.178;4.500;2023-09-30T00:43:01;41.85;34.53;48.81;;
66463;Laerm;56827;52.178;4.500;2023-09-30T00:43:17;34.04;31.95;37.04;;
66463;Laerm;56827;52.178;4.500;2023-09-30T00:43:27;32.05;30.10;33.67;;
66463;Laerm;56827;52.178;4.500;2023-09-30T00:43:38;32.62;30.92;36.03;;
66463;Laerm;56827;52.178;4.500;2023-09-30T00:43:48;33.82;31.29;36.48;;
66463;Laerm;56827;52.178;4.500;2023-09-30T00:43:58;35.65;33.06;38.17;;
66463;Laerm;56827;52.178;4.500;2023-09-30T00:44:09;33.46;31.28;38.09;;
66463;Laerm;56827;52.178;4.500;2023-09-30T00:44:19;34.49;30.79;40.95;;
66463;Laerm;56827;52.178;4.500;2023-09-30T00:44:29;31.59;30.36;33.76;;
66463;Laerm;56827;52.178;4.500;2023-09-30T00:44:39;31.79;29.78;42.89;;
66463;Laerm;56827;52.178;4.500;2023-09-30T00:44:50;32.37;30.45;35.76;;
66463;Laerm;56827;52.178;4.500;2023-09-30T00:45:00;32.40;30.38;34.04;;
66463;Laerm;56827;52.178;4.500;2023-09-30T00:45:10;32.89;30.72;36.32;;
66463;Laerm;56827;52.178;4.500;2023-09-30T00:45:21;35.97;33.73;38.67;;
66463;Laerm;56827;52.178;4.500;2023-09-30T00:45:31;36.67;32.88;41.22;;
66463;Laerm;56827;52.178;4.500;2023-09-30T00:45:42;32.08;30.04;38.37;;
66463;Laerm;56827;52.178;4.500;2023-09-30T00:45:54;32.19;29.88;39.08;;
66463;Laerm;56827;52.178;4.500;2023-09-30T00:46:31;31.97;29.97;33.99;;
66463;Laerm;56827;52.178;4.500;2023-09-30T00:46:41;31.55;29.99;33.60;;
66463;Laerm;56827;52.178;4.500;2023-09-30T00:46:53;31.66;29.75;34.88;;
66463;Laerm;56827;52.178;4.500;2023-09-30T00:47:05;35.60;30.67;49.36;;
66463;Laerm;56827;52.178;4.500;2023-09-30T00:47:15;32.57;30.97;34.42;;
66463;Laerm;56827;52.178;4.500;2023-09-30T00:47:26;33.07;31.29;36.21;;
66463;Laerm;56827;52.178;4.500;2023-09-30T00:47:37;32.03;30.31;33.51;;
66463;Laerm;56827;52.178;4.500;2023-09-30T00:47:47;32.14;30.30;34.44;;
66463;Laerm;56827;52.178;4.500;2023-09-30T00:47:58;31.87;30.17;33.91;;
66463;Laerm;56827;52.178;4.500;2023-09-30T00:48:08;31.63;30.54;32.77;;
66463;Laerm;56827;52.178;4.500;2023-09-30T00:48:18;31.94;30.46;33.08;;
66463;Laerm;56827;52.178;4.500;2023-09-30T00:48:28;32.04;30.16;33.83;;
66463;Laerm;56827;52.178;4.500;2023-09-30T00:48:38;32.91;30.56;35.79;;
66463;Laerm;56827;52.178;4.500;2023-09-30T00:48:49;32.99;31.35;34.62;;
66463;Laerm;56827;52.178;4.500;2023-09-30T00:49:00;34.31;32.33;37.11;;
66463;Laerm;56827;52.178;4.500;2023-09-30T00:49:10;32.21;30.20;34.51;;
66463;Laerm;56827;52.178;4.500;2023-09-30T00:49:23;31.18;29.79;32.61;;
66463;Laerm;56827;52.178;4.500;2023-09-30T00:49:34;31.87;30.31;33.40;;
66463;Laerm;56827;52.178;4.500;2023-09-30T00:49:44;33.72;31.45;35.88;;
66463;Laerm;56827;52.178;4.500;2023-09-30T00:49:55;33.24;30.89;35.34;;
66463;Laerm;56827;52.178;4.500;2023-09-30T00:50:05;33.10;30.89;35.48;;
66463;Laerm;56827;52.178;4.500;2023-09-30T00:50:19;35.97;32.45;40.93;;
66463;Laerm;56827;52.178;4.500;2023-09-30T00:50:29;32.42;30.56;36.88;;
66463;Laerm;56827;52.178;4.500;2023-09-30T00:50:40;31.22;29.90;32.65;;
66463;Laerm;56827;52.178;4.500;2023-09-30T00:50:51;31.16;29.98;35.37;;
66463;Laerm;56827;52.178;4.500;2023-09-30T00:51:01;31.07;29.78;33.00;;
66463;Laerm;56827;52.178;4.500;2023-09-30T00:51:12;31.09;29.59;34.97;;
66463;Laerm;56827;52.178;4.500;2023-09-30T00:51:23;31.71;30.34;33.32;;
66463;Laerm;56827;52.178;4.500;2023-09-30T00:51:34;32.07;29.92;39.09;;
66463;Laerm;56827;52.178;4.500;2023-09-30T00:51:45;31.44;29.93;37.96;;
66463;Laerm;56827;52.178;4.500;2023-09-30T00:51:56;32.09;30.32;42.27;;
66463;Laerm;56827;52.178;4.500;2023-09-30T00:52:06;31.92;30.16;41.25;;
66463;Laerm;56827;52.178;4.500;2023-09-30T00:52:17;31.31;30.00;32.48;;
66463;Laerm;56827;52.178;4.500;2023-09-30T00:52:28;31.45;30.09;37.94;;
66463;Laerm;56827;52.178;4.500;2023-09-30T00:52:38;31.54;29.70;33.37;;
66463;Laerm;56827;52.178;4.500;2023-09-30T00:52:49;32.00;30.40;33.64;;
66463;Laerm;56827;52.178;4.500;2023-09-30T00:53:00;32.01;30.54;33.99;;
66463;Laerm;56827;52.178;4.500;2023-09-30T00:53:10;33.09;31.03;35.86;;
66463;Laerm;56827;52.178;4.500;2023-09-30T00:53:20;35.80;32.44;39.82;;
66463;Laerm;56827;52.178;4.500;2023-09-30T00:53:30;35.27;32.78;37.75;;
66463;Laerm;56827;52.178;4.500;2023-09-30T00:53:41;32.02;30.19;34.81;;
66463;Laerm;56827;52.178;4.500;2023-09-30T00:53:52;32.05;30.26;34.89;;
66463;Laerm;56827;52.178;4.500;2023-09-30T00:54:02;33.42;30.91;36.64;;
66463;Laerm;56827;52.178;4.500;2023-09-30T00:54:13;32.05;30.58;35.06;;
66463;Laerm;56827;52.178;4.500;2023-09-30T00:54:24;31.78;30.07;33.27;;
66463;Laerm;56827;52.178;4.500;2023-09-30T00:54:35;31.59;30.37;32.88;;
66463;Laerm;56827;52.178;4.500;2023-09-30T00:54:47;31.76;30.23;34.12;;
66463;Laerm;56827;52.178;4.500;2023-09-30T00:54:58;32.33;30.88;34.53;;
66463;Laerm;56827;52.178;4.500;2023-09-30T00:55:09;32.85;31.37;35.36;;
66463;Laerm;56827;52.178;4.500;2023-09-30T00:55:20;32.64;30.33;37.96;;
66463;Laerm;56827;52.178;4.500;2023-09-30T00:55:31;32.42;30.13;34.48;;
66463;Laerm;56827;52.178;4.500;2023-09-30T00:55:42;32.93;31.11;37.18;;
66463;Laerm;56827;52.178;4.500;2023-09-30T00:55:52;33.61;31.83;36.99;;
66463;Laerm;56827;52.178;4.500;2023-09-30T00:56:04;37.57;31.43;49.34;;
66463;Laerm;56827;52.178;4.500;2023-09-30T00:56:15;38.38;32.47;53.08;;
66463;Laerm;56827;52.178;4.500;2023-09-30T00:56:26;35.35;32.12;42.04;;
66463;Laerm;56827;52.178;4.500;2023-09-30T00:56:37;35.21;31.30;41.73;;
66463;Laerm;56827;52.178;4.500;2023-09-30T00:56:52;32.14;30.27;42.24;;
66463;Laerm;56827;52.178;4.500;2023-09-30T00:57:03;32.58;30.76;35.05;;
66463;Laerm;56827;52.178;4.500;2023-09-30T00:57:13;31.68;30.25;33.19;;
66463;Laerm;56827;52.178;4.500;2023-09-30T00:57:24;31.65;30.41;33.32;;
66463;Laerm;56827;52.178;4.500;2023-09-30T00:57:35;31.39;30.13;34.03;;
66463;Laerm;56827;52.178;4.500;2023-09-30T00:57:46;31.21;29.55;32.32;;
66463;Laerm;56827;52.178;4.500;2023-09-30T00:57:56;31.50;30.20;33.18;;
66463;Laerm;56827;52.178;4.500;2023-09-30T00:58:06;31.48;30.33;35.68;;
66463;Laerm;56827;52.178;4.500;2023-09-30T00:58:17;31.51;30.11;33.28;;
66463;Laerm;56827;52.178;4.500;2023-09-30T00:58:27;31.62;30.07;34.37;;
66463;Laerm;56827;52.178;4.500;2023-09-30T00:58:39;31.90;30.41;33.78;;
66463;Laerm;56827;52.178;4.500;2023-09-30T00:58:49;31.70;30.38;33.27;;
66463;Laerm;56827;52.178;4.500;2023-09-30T00:59:01;31.82;30.38;35.80;;
66463;Laerm;56827;52.178;4.500;2023-09-30T00:59:14;32.06;30.42;35.12;;
66463;Laerm;56827;52.178;4.500;2023-09-30T00:59:25;32.32;30.82;41.25;;
66463;Laerm;56827;52.178;4.500;2023-09-30T00:59:36;32.31;30.56;39.88;;
66463;Laerm;56827;52.178;4.500;2023-09-30T00:59:47;31.97;30.58;36.69;;
66463;Laerm;56827;52.178;4.500;2023-09-30T00:59:58;31.61;30.00;33.01;;